sensor_id;sensor_type;location;lat;lon;timestamp;P1;durP1;ratioP1;P2;durP2;ratioP2
17169;SDS011;8700;48.222;16.342;2024-03-07T00:00:33;20.90;;;19.00;;
17169;SDS011;8700;48.222;16.342;2024-03-07T00:03:54;21.30;;;19.20;;
17169;SDS011;8700;48.222;16.342;2024-03-07T00:07:15;21.70;;;19.57;;
17169;SDS011;8700;48.222;16.342;2024-03-07T00:10:36;21.23;;;19.23;;
17169;SDS011;8700;48.222;16.342;2024-03-07T00:13:58;20.87;;;18.67;;
17169;SDS011;8700;48.222;16.342;2024-03-07T00:17:23;21.50;;;19.67;;
17169;SDS011;8700;48.222;16.342;2024-03-07T00:20:44;20.97;;;18.77;;
17169;SDS011;8700;48.222;16.342;2024-03-07T00:24:05;21.40;;;19.23;;
17169;SDS011;8700;48.222;16.342;2024-03-07T00:27:27;23.60;;;21.30;;
17169;SDS011;8700;48.222;16.342;2024-03-07T00:30:48;23.73;;;21.20;;
17169;SDS011;8700;48.222;16.342;2024-03-07T00:34:11;21.77;;;19.73;;
17169;SDS011;8700;48.222;16.342;2024-03-07T00:37:33;22.63;;;20.43;;
17169;SDS011;8700;48.222;16.342;2024-03-07T00:40:54;22.70;;;20.50;;
17169;SDS011;8700;48.222;16.342;2024-03-07T00:44:16;22.67;;;20.57;;
17169;SDS011;8700;48.222;16.342;2024-03-07T00:47:37;22.27;;;20.20;;
17169;SDS011;8700;48.222;16.342;2024-03-07T00:50:59;21.13;;;19.13;;
17169;SDS011;8700;48.222;16.342;2024-03-07T00:54:21;22.40;;;20.27;;
17169;SDS011;8700;48.222;16.342;2024-03-07T00:57:42;21.10;;;19.00;;
17169;SDS011;8700;48.222;16.342;2024-03-07T01:01:04;20.83;;;18.90;;
17169;SDS011;8700;48.222;16.342;2024-03-07T01:04:25;21.07;;;19.00;;
17169;SDS011;8700;48.222;16.342;2024-03-07T01:07:51;20.03;;;17.93;;
17169;SDS011;8700;48.222;16.342;2024-03-07T01:11:14;22.23;;;19.00;;
17169;SDS011;8700;48.222;16.342;2024-03-07T01:14:36;20.07;;;18.07;;
17169;SDS011;8700;48.222;16.342;2024-03-07T01:17:57;19.67;;;17.60;;
17169;SDS011;8700;48.222;16.342;2024-03-07T01:21:18;19.60;;;17.30;;
17169;SDS011;8700;48.222;16.342;2024-03-07T01:24:41;20.13;;;18.03;;
17169;SDS011;8700;48.222;16.342;2024-03-07T01:28:03;20.83;;;18.73;;
17169;SDS011;8700;48.222;16.342;2024-03-07T01:31:24;19.87;;;18.00;;
17169;SDS011;8700;48.222;16.342;2024-03-07T01:34:45;19.90;;;17.80;;
17169;SDS011;8700;48.222;16.342;2024-03-07T01:38:06;18.97;;;17.17;;
17169;SDS011;8700;48.222;16.342;2024-03-07T01:41:29;20.20;;;18.20;;
17169;SDS011;8700;48.222;16.342;2024-03-07T01:44:50;21.63;;;19.43;;
17169;SDS011;8700;48.222;16.342;2024-03-07T01:48:12;20.93;;;18.87;;
17169;SDS011;8700;48.222;16.342;2024-03-07T01:51:40;20.63;;;18.60;;
17169;SDS011;8700;48.222;16.342;2024-03-07T01:55:03;21.67;;;19.23;;
17169;SDS011;8700;48.222;16.342;2024-03-07T01:58:26;21.10;;;18.93;;
17169;SDS011;8700;48.222;16.342;2024-03-07T02:01:48;21.67;;;19.53;;
17169;SDS011;8700;48.222;16.342;2024-03-07T02:05:11;22.80;;;20.53;;
17169;SDS011;8700;48.222;16.342;2024-03-07T02:08:32;23.80;;;21.50;;
17169;SDS011;8700;48.222;16.342;2024-03-07T02:11:54;20.90;;;18.73;;
17169;SDS011;8700;48.222;16.342;2024-03-07T02:15:16;23.70;;;21.40;;
17169;SDS011;8700;48.222;16.342;2024-03-07T02:18:38;26.93;;;24.10;;
17169;SDS011;8700;48.222;16.342;2024-03-07T02:22:00;26.93;;;24.20;;
17169;SDS011;8700;48.222;16.342;2024-03-07T02:25:21;25.87;;;23.37;;
17169;SDS011;8700;48.222;16.342;2024-03-07T02:28:43;25.37;;;22.00;;
17169;SDS011;8700;48.222;16.342;2024-03-07T02:32:04;23.90;;;21.40;;
17169;SDS011;8700;48.222;16.342;2024-03-07T02:35:25;23.47;;;21.07;;
17169;SDS011;8700;48.222;16.342;2024-03-07T02:38:48;25.53;;;22.77;;
17169;SDS011;8700;48.222;16.342;2024-03-07T02:42:09;24.17;;;21.07;;
17169;SDS011;8700;48.222;16.342;2024-03-07T02:45:30;24.13;;;21.60;;
17169;SDS011;8700;48.222;16.342;2024-03-07T02:48:51;26.17;;;21.80;;
17169;SDS011;8700;48.222;16.342;2024-03-07T02:52:13;24.07;;;21.57;;
17169;SDS011;8700;48.222;16.342;2024-03-07T02:55:35;23.00;;;20.57;;
17169;SDS011;8700;48.222;16.342;2024-03-07T02:58:56;22.13;;;19.83;;
17169;SDS011;8700;48.222;16.342;2024-03-07T03:02:17;21.93;;;19.63;;
17169;SDS011;8700;48.222;16.342;2024-03-07T03:05:38;23.03;;;20.50;;
17169;SDS011;8700;48.222;16.342;2024-03-07T03:08:59;22.13;;;19.77;;
17169;SDS011;8700;48.222;16.342;2024-03-07T03:12:25;21.93;;;19.77;;
17169;SDS011;8700;48.222;16.342;2024-03-07T03:15:46;21.30;;;19.00;;
17169;SDS011;8700;48.222;16.342;2024-03-07T03:19:07;22.43;;;19.43;;
17169;SDS011;8700;48.222;16.342;2024-03-07T03:22:29;20.90;;;18.70;;
17169;SDS011;8700;48.222;16.342;2024-03-07T03:25:50;20.33;;;18.07;;
17169;SDS011;8700;48.222;16.342;2024-03-07T03:29:13;19.30;;;17.23;;
17169;SDS011;8700;48.222;16.342;2024-03-07T03:32:35;20.80;;;18.60;;
17169;SDS011;8700;48.222;16.342;2024-03-07T03:35:56;19.63;;;17.60;;
17169;SDS011;8700;48.222;16.342;2024-03-07T03:39:18;21.40;;;18.43;;
17169;SDS011;8700;48.222;16.342;2024-03-07T03:42:40;19.03;;;17.17;;
17169;SDS011;8700;48.222;16.342;2024-03-07T03:46:04;20.83;;;18.10;;
17169;SDS011;8700;48.222;16.342;2024-03-07T03:49:24;19.33;;;17.33;;
17169;SDS011;8700;48.222;16.342;2024-03-07T03:52:46;19.93;;;17.83;;
17169;SDS011;8700;48.222;16.342;2024-03-07T03:56:09;20.67;;;18.37;;
17169;SDS011;8700;48.222;16.342;2024-03-07T03:59:31;18.47;;;16.27;;
17169;SDS011;8700;48.222;16.342;2024-03-07T04:02:53;18.60;;;16.77;;
17169;SDS011;8700;48.222;16.342;2024-03-07T04:06:15;18.57;;;16.60;;
17169;SDS011;8700;48.222;16.342;2024-03-07T04:09:36;17.87;;;16.07;;
17169;SDS011;8700;48.222;16.342;2024-03-07T04:12:57;20.13;;;18.03;;
17169;SDS011;8700;48.222;16.342;2024-03-07T04:16:18;18.80;;;16.83;;
17169;SDS011;8700;48.222;16.342;2024-03-07T04:19:42;21.40;;;16.50;;
17169;SDS011;8700;48.222;16.342;2024-03-07T04:23:03;18.20;;;15.90;;
17169;SDS011;8700;48.222;16.342;2024-03-07T04:26:25;18.57;;;16.67;;
17169;SDS011;8700;48.222;16.342;2024-03-07T04:29:46;17.67;;;15.87;;
17169;SDS011;8700;48.222;16.342;2024-03-07T04:33:08;18.07;;;15.37;;
17169;SDS011;8700;48.222;16.342;2024-03-07T04:36:31;19.77;;;16.67;;
17169;SDS011;8700;48.222;16.342;2024-03-07T04:39:52;16.97;;;15.37;;
17169;SDS011;8700;48.222;16.342;2024-03-07T04:43:13;18.90;;;17.07;;
17169;SDS011;8700;48.222;16.342;2024-03-07T04:46:35;17.77;;;15.90;;
17169;SDS011;8700;48.222;16.342;2024-03-07T04:50:02;17.77;;;15.90;;
17169;SDS011;8700;48.222;16.342;2024-03-07T04:53:25;17.33;;;15.53;;
17169;SDS011;8700;48.222;16.342;2024-03-07T04:56:46;17.90;;;15.90;;
17169;SDS011;8700;48.222;16.342;2024-03-07T05:00:08;17.97;;;16.00;;
17169;SDS011;8700;48.222;16.342;2024-03-07T05:03:33;18.27;;;16.40;;
17169;SDS011;8700;48.222;16.342;2024-03-07T05:06:54;17.27;;;15.43;;
17169;SDS011;8700;48.222;16.342;2024-03-07T05:10:18;17.73;;;16.03;;
17169;SDS011;8700;48.222;16.342;2024-03-07T05:13:39;19.23;;;17.23;;
17169;SDS011;8700;48.222;16.342;2024-03-07T05:17:02;18.27;;;16.37;;
17169;SDS011;8700;48.222;16.342;2024-03-07T05:20:27;18.27;;;16.47;;
17169;SDS011;8700;48.222;16.342;2024-03-07T05:23:49;16.10;;;14.30;;
17169;SDS011;8700;48.222;16.342;2024-03-07T05:27:12;20.57;;;18.37;;
17169;SDS011;8700;48.222;16.342;2024-03-07T05:30:33;18.97;;;16.97;;
17169;SDS011;8700;48.222;16.342;2024-03-07T05:33:54;18.63;;;16.63;;
17169;SDS011;8700;48.222;16.342;2024-03-07T05:37:19;16.00;;;14.17;;
17169;SDS011;8700;48.222;16.342;2024-03-07T05:40:41;21.57;;;17.80;;
17169;SDS011;8700;48.222;16.342;2024-03-07T05:44:04;19.30;;;17.10;;
17169;SDS011;8700;48.222;16.342;2024-03-07T05:47:28;18.13;;;16.23;;
17169;SDS011;8700;48.222;16.342;2024-03-07T05:50:49;17.83;;;15.97;;
17169;SDS011;8700;48.222;16.342;2024-03-07T05:54:10;19.97;;;17.87;;
17169;SDS011;8700;48.222;16.342;2024-03-07T05:57:32;17.23;;;15.00;;
17169;SDS011;8700;48.222;16.342;2024-03-07T06:00:54;20.00;;;18.10;;
17169;SDS011;8700;48.222;16.342;2024-03-07T06:04:16;22.00;;;19.57;;
17169;SDS011;8700;48.222;16.342;2024-03-07T06:07:37;18.77;;;15.80;;
17169;SDS011;8700;48.222;16.342;2024-03-07T06:10:59;17.57;;;15.70;;
17169;SDS011;8700;48.222;16.342;2024-03-07T06:14:20;18.67;;;15.43;;
17169;SDS011;8700;48.222;16.342;2024-03-07T06:17:44;19.70;;;17.77;;
17169;SDS011;8700;48.222;16.342;2024-03-07T06:21:05;18.07;;;16.20;;
17169;SDS011;8700;48.222;16.342;2024-03-07T06:24:27;19.23;;;17.23;;
17169;SDS011;8700;48.222;16.342;2024-03-07T06:27:49;24.43;;;18.80;;
17169;SDS011;8700;48.222;16.342;2024-03-07T06:31:11;17.17;;;15.30;;
17169;SDS011;8700;48.222;16.342;2024-03-07T06:34:34;20.27;;;15.57;;
17169;SDS011;8700;48.222;16.342;2024-03-07T06:37:55;19.53;;;15.27;;
17169;SDS011;8700;48.222;16.342;2024-03-07T06:41:16;18.03;;;15.13;;
17169;SDS011;8700;48.222;16.342;2024-03-07T06:44:37;20.40;;;18.10;;
17169;SDS011;8700;48.222;16.342;2024-03-07T06:47:58;20.00;;;18.00;;
17169;SDS011;8700;48.222;16.342;2024-03-07T06:51:21;20.10;;;18.00;;
17169;SDS011;8700;48.222;16.342;2024-03-07T06:54:42;20.37;;;17.80;;
17169;SDS011;8700;48.222;16.342;2024-03-07T06:58:03;17.30;;;15.60;;
17169;SDS011;8700;48.222;16.342;2024-03-07T07:01:24;17.43;;;15.73;;
17169;SDS011;8700;48.222;16.342;2024-03-07T07:04:48;16.67;;;14.80;;
17169;SDS011;8700;48.222;16.342;2024-03-07T07:08:11;19.33;;;17.40;;
17169;SDS011;8700;48.222;16.342;2024-03-07T07:11:33;20.40;;;18.27;;
17169;SDS011;8700;48.222;16.342;2024-03-07T07:14:54;21.77;;;17.60;;
17169;SDS011;8700;48.222;16.342;2024-03-07T07:18:15;19.03;;;17.03;;
17169;SDS011;8700;48.222;16.342;2024-03-07T07:21:37;17.10;;;15.27;;
17169;SDS011;8700;48.222;16.342;2024-03-07T07:24:59;19.40;;;17.40;;
17169;SDS011;8700;48.222;16.342;2024-03-07T07:28:20;17.87;;;16.13;;
17169;SDS011;8700;48.222;16.342;2024-03-07T07:31:42;18.67;;;16.80;;
17169;SDS011;8700;48.222;16.342;2024-03-07T07:35:03;17.93;;;16.13;;
17169;SDS011;8700;48.222;16.342;2024-03-07T07:38:28;20.77;;;18.77;;
17169;SDS011;8700;48.222;16.342;2024-03-07T07:41:52;19.97;;;17.83;;
17169;SDS011;8700;48.222;16.342;2024-03-07T07:45:13;19.33;;;17.43;;
17169;SDS011;8700;48.222;16.342;2024-03-07T07:48:35;17.77;;;15.87;;
17169;SDS011;8700;48.222;16.342;2024-03-07T07:51:57;20.30;;;16.60;;
17169;SDS011;8700;48.222;16.342;2024-03-07T07:55:20;16.50;;;14.80;;
17169;SDS011;8700;48.222;16.342;2024-03-07T07:58:43;18.23;;;16.33;;
17169;SDS011;8700;48.222;16.342;2024-03-07T08:02:05;18.67;;;16.63;;
17169;SDS011;8700;48.222;16.342;2024-03-07T08:05:27;19.13;;;17.23;;
17169;SDS011;8700;48.222;16.342;2024-03-07T08:08:49;17.37;;;15.53;;
17169;SDS011;8700;48.222;16.342;2024-03-07T08:12:10;20.10;;;18.10;;
17169;SDS011;8700;48.222;16.342;2024-03-07T08:15:33;19.03;;;17.00;;
17169;SDS011;8700;48.222;16.342;2024-03-07T08:18:55;17.47;;;15.70;;
17169;SDS011;8700;48.222;16.342;2024-03-07T08:22:16;16.23;;;14.53;;
17169;SDS011;8700;48.222;16.342;2024-03-07T08:25:38;19.00;;;16.13;;
17169;SDS011;8700;48.222;16.342;2024-03-07T08:29:00;17.50;;;15.80;;
17169;SDS011;8700;48.222;16.342;2024-03-07T08:32:23;16.07;;;14.43;;
17169;SDS011;8700;48.222;16.342;2024-03-07T08:35:45;15.60;;;14.00;;
17169;SDS011;8700;48.222;16.342;2024-03-07T08:39:06;15.53;;;14.03;;
17169;SDS011;8700;48.222;16.342;2024-03-07T08:42:30;16.93;;;15.33;;
17169;SDS011;8700;48.222;16.342;2024-03-07T08:45:52;17.10;;;15.30;;
17169;SDS011;8700;48.222;16.342;2024-03-07T08:49:15;17.43;;;15.77;;
17169;SDS011;8700;48.222;16.342;2024-03-07T08:52:37;17.57;;;15.77;;
17169;SDS011;8700;48.222;16.342;2024-03-07T08:55:59;17.30;;;15.40;;
17169;SDS011;8700;48.222;16.342;2024-03-07T08:59:21;20.50;;;15.70;;
17169;SDS011;8700;48.222;16.342;2024-03-07T09:02:42;32.20;;;19.40;;
17169;SDS011;8700;48.222;16.342;2024-03-07T09:06:05;19.77;;;17.77;;
17169;SDS011;8700;48.222;16.342;2024-03-07T09:09:26;20.23;;;17.92;;
17169;SDS011;8700;48.222;16.342;2024-03-07T09:12:49;19.30;;;17.37;;
17169;SDS011;8700;48.222;16.342;2024-03-07T09:16:12;16.07;;;14.33;;
17169;SDS011;8700;48.222;16.342;2024-03-07T09:19:33;18.47;;;16.73;;
17169;SDS011;8700;48.222;16.342;2024-03-07T09:22:56;18.30;;;16.27;;
17169;SDS011;8700;48.222;16.342;2024-03-07T09:26:19;15.90;;;14.30;;
17169;SDS011;8700;48.222;16.342;2024-03-07T09:29:40;19.93;;;17.10;;
17169;SDS011;8700;48.222;16.342;2024-03-07T09:33:02;20.37;;;17.70;;
17169;SDS011;8700;48.222;16.342;2024-03-07T09:36:23;20.40;;;18.17;;
17169;SDS011;8700;48.222;16.342;2024-03-07T09:39:46;23.10;;;20.95;;
17169;SDS011;8700;48.222;16.342;2024-03-07T09:43:08;19.15;;;16.90;;
17169;SDS011;8700;48.222;16.342;2024-03-07T09:46:33;16.15;;;14.57;;
17169;SDS011;8700;48.222;16.342;2024-03-07T09:49:54;15.50;;;14.00;;
17169;SDS011;8700;48.222;16.342;2024-03-07T09:53:16;19.17;;;17.17;;
17169;SDS011;8700;48.222;16.342;2024-03-07T09:56:41;18.13;;;16.17;;
17169;SDS011;8700;48.222;16.342;2024-03-07T10:00:03;18.57;;;16.17;;
17169;SDS011;8700;48.222;16.342;2024-03-07T10:03:37;23.10;;;20.60;;
17169;SDS011;8700;48.222;16.342;2024-03-07T10:07:04;24.90;;;21.20;;
17169;SDS011;8700;48.222;16.342;2024-03-07T10:10:25;21.20;;;17.87;;
17169;SDS011;8700;48.222;16.342;2024-03-07T10:13:47;22.80;;;20.02;;
17169;SDS011;8700;48.222;16.342;2024-03-07T10:17:11;24.70;;;20.57;;
17169;SDS011;8700;48.222;16.342;2024-03-07T10:20:33;25.83;;;22.97;;
17169;SDS011;8700;48.222;16.342;2024-03-07T10:24:03;23.83;;;20.83;;
17169;SDS011;8700;48.222;16.342;2024-03-07T10:27:27;24.92;;;22.38;;
17169;SDS011;8700;48.222;16.342;2024-03-07T10:30:50;26.88;;;24.15;;
17169;SDS011;8700;48.222;16.342;2024-03-07T10:34:11;25.00;;;22.38;;
17169;SDS011;8700;48.222;16.342;2024-03-07T10:37:34;27.85;;;24.90;;
17169;SDS011;8700;48.222;16.342;2024-03-07T10:40:55;24.80;;;22.08;;
17169;SDS011;8700;48.222;16.342;2024-03-07T10:44:18;24.00;;;21.45;;
17169;SDS011;8700;48.222;16.342;2024-03-07T10:47:43;23.15;;;20.70;;
17169;SDS011;8700;48.222;16.342;2024-03-07T10:51:12;27.13;;;21.27;;
17169;SDS011;8700;48.222;16.342;2024-03-07T10:54:43;25.75;;;23.05;;
17169;SDS011;8700;48.222;16.342;2024-03-07T10:58:09;23.23;;;20.67;;
17169;SDS011;8700;48.222;16.342;2024-03-07T11:01:36;24.90;;;22.23;;
17169;SDS011;8700;48.222;16.342;2024-03-07T11:05:06;26.83;;;21.90;;
17169;SDS011;8700;48.222;16.342;2024-03-07T11:08:32;25.57;;;22.80;;
17169;SDS011;8700;48.222;16.342;2024-03-07T11:11:53;25.67;;;22.93;;
17169;SDS011;8700;48.222;16.342;2024-03-07T11:15:15;25.77;;;23.10;;
17169;SDS011;8700;48.222;16.342;2024-03-07T11:18:39;26.77;;;23.43;;
17169;SDS011;8700;48.222;16.342;2024-03-07T11:22:02;27.90;;;24.00;;
17169;SDS011;8700;48.222;16.342;2024-03-07T11:25:33;26.77;;;22.83;;
17169;SDS011;8700;48.222;16.342;2024-03-07T11:28:55;30.07;;;23.63;;
17169;SDS011;8700;48.222;16.342;2024-03-07T11:32:18;29.10;;;26.10;;
17169;SDS011;8700;48.222;16.342;2024-03-07T11:35:47;27.23;;;23.47;;
17169;SDS011;8700;48.222;16.342;2024-03-07T11:43:02;34.43;;;25.60;;
17169;SDS011;8700;48.222;16.342;2024-03-07T11:46:25;29.93;;;26.80;;
17169;SDS011;8700;48.222;16.342;2024-03-07T11:49:49;30.60;;;27.27;;
17169;SDS011;8700;48.222;16.342;2024-03-07T11:53:11;30.87;;;27.67;;
17169;SDS011;8700;48.222;16.342;2024-03-07T11:56:34;32.17;;;28.77;;
17169;SDS011;8700;48.222;16.342;2024-03-07T11:59:55;38.03;;;32.43;;
17169;SDS011;8700;48.222;16.342;2024-03-07T12:03:18;30.73;;;27.57;;
17169;SDS011;8700;48.222;16.342;2024-03-07T12:06:49;33.47;;;28.03;;
17169;SDS011;8700;48.222;16.342;2024-03-07T12:10:12;30.30;;;26.90;;
17169;SDS011;8700;48.222;16.342;2024-03-07T12:13:34;32.83;;;29.00;;
17169;SDS011;8700;48.222;16.342;2024-03-07T12:16:56;38.67;;;31.10;;
17169;SDS011;8700;48.222;16.342;2024-03-07T12:20:17;34.43;;;27.83;;
17169;SDS011;8700;48.222;16.342;2024-03-07T12:23:50;33.10;;;29.47;;
17169;SDS011;8700;48.222;16.342;2024-03-07T12:27:11;34.30;;;30.23;;
17169;SDS011;8700;48.222;16.342;2024-03-07T12:30:35;35.37;;;29.10;;
17169;SDS011;8700;48.222;16.342;2024-03-07T12:34:07;35.73;;;30.47;;
17169;SDS011;8700;48.222;16.342;2024-03-07T12:37:34;31.80;;;28.40;;
17169;SDS011;8700;48.222;16.342;2024-03-07T12:41:02;33.50;;;28.33;;
17169;SDS011;8700;48.222;16.342;2024-03-07T12:44:39;31.90;;;28.47;;
17169;SDS011;8700;48.222;16.342;2024-03-07T12:48:03;35.77;;;31.40;;
17169;SDS011;8700;48.222;16.342;2024-03-07T12:51:25;39.47;;;32.37;;
17169;SDS011;8700;48.222;16.342;2024-03-07T12:54:46;37.47;;;30.60;;
17169;SDS011;8700;48.222;16.342;2024-03-07T12:58:07;33.60;;;29.97;;
17169;SDS011;8700;48.222;16.342;2024-03-07T13:01:30;32.17;;;28.70;;
17169;SDS011;8700;48.222;16.342;2024-03-07T13:04:54;34.40;;;30.83;;
17169;SDS011;8700;48.222;16.342;2024-03-07T13:08:15;37.03;;;31.30;;
17169;SDS011;8700;48.222;16.342;2024-03-07T13:11:37;34.83;;;30.43;;
17169;SDS011;8700;48.222;16.342;2024-03-07T13:15:00;34.67;;;30.90;;
17169;SDS011;8700;48.222;16.342;2024-03-07T13:18:22;32.90;;;29.33;;
17169;SDS011;8700;48.222;16.342;2024-03-07T13:21:44;36.50;;;30.40;;
17169;SDS011;8700;48.222;16.342;2024-03-07T13:25:06;33.90;;;30.40;;
17169;SDS011;8700;48.222;16.342;2024-03-07T13:28:33;31.80;;;28.50;;
17169;SDS011;8700;48.222;16.342;2024-03-07T13:31:54;30.37;;;27.10;;
17169;SDS011;8700;48.222;16.342;2024-03-07T13:35:16;34.23;;;29.40;;
17169;SDS011;8700;48.222;16.342;2024-03-07T13:38:40;31.77;;;28.37;;
17169;SDS011;8700;48.222;16.342;2024-03-07T13:42:01;33.20;;;26.27;;
17169;SDS011;8700;48.222;16.342;2024-03-07T13:45:24;35.93;;;29.53;;
17169;SDS011;8700;48.222;16.342;2024-03-07T13:48:47;31.83;;;28.20;;
17169;SDS011;8700;48.222;16.342;2024-03-07T13:52:08;33.73;;;29.10;;
17169;SDS011;8700;48.222;16.342;2024-03-07T13:55:45;32.53;;;28.50;;
17169;SDS011;8700;48.222;16.342;2024-03-07T14:03:26;30.37;;;27.07;;
17169;SDS011;8700;48.222;16.342;2024-03-07T14:07:04;30.93;;;27.27;;
17169;SDS011;8700;48.222;16.342;2024-03-07T14:10:52;31.93;;;28.43;;
17169;SDS011;8700;48.222;16.342;2024-03-07T14:18:58;31.67;;;26.97;;
17169;SDS011;8700;48.222;16.342;2024-03-07T14:22:55;33.93;;;28.50;;
17169;SDS011;8700;48.222;16.342;2024-03-07T14:26:40;30.67;;;27.47;;
17169;SDS011;8700;48.222;16.342;2024-03-07T14:30:20;32.57;;;28.97;;
17169;SDS011;8700;48.222;16.342;2024-03-07T14:33:48;30.97;;;27.60;;
17169;SDS011;8700;48.222;16.342;2024-03-07T14:37:17;31.87;;;28.47;;
17169;SDS011;8700;48.222;16.342;2024-03-07T14:40:43;30.90;;;27.60;;
17169;SDS011;8700;48.222;16.342;2024-03-07T14:44:09;30.57;;;27.30;;
17169;SDS011;8700;48.222;16.342;2024-03-07T14:47:30;38.10;;;32.80;;
17169;SDS011;8700;48.222;16.342;2024-03-07T14:50:52;31.73;;;28.30;;
17169;SDS011;8700;48.222;16.342;2024-03-07T14:54:13;31.53;;;28.07;;
17169;SDS011;8700;48.222;16.342;2024-03-07T14:57:34;30.70;;;27.20;;
17169;SDS011;8700;48.222;16.342;2024-03-07T15:00:56;33.00;;;27.87;;
17169;SDS011;8700;48.222;16.342;2024-03-07T15:04:17;34.07;;;29.77;;
17169;SDS011;8700;48.222;16.342;2024-03-07T15:07:40;35.43;;;31.63;;
17169;SDS011;8700;48.222;16.342;2024-03-07T15:11:03;32.40;;;28.73;;
17169;SDS011;8700;48.222;16.342;2024-03-07T15:14:32;34.03;;;28.63;;
17169;SDS011;8700;48.222;16.342;2024-03-07T15:17:55;35.87;;;30.97;;
17169;SDS011;8700;48.222;16.342;2024-03-07T15:21:16;38.07;;;31.20;;
17169;SDS011;8700;48.222;16.342;2024-03-07T15:24:39;34.17;;;30.07;;
17169;SDS011;8700;48.222;16.342;2024-03-07T15:28:01;41.47;;;32.47;;
17169;SDS011;8700;48.222;16.342;2024-03-07T15:31:22;38.47;;;33.47;;
17169;SDS011;8700;48.222;16.342;2024-03-07T15:34:45;39.60;;;33.23;;
17169;SDS011;8700;48.222;16.342;2024-03-07T15:38:07;37.90;;;31.53;;
17169;SDS011;8700;48.222;16.342;2024-03-07T15:41:30;40.73;;;32.53;;
17169;SDS011;8700;48.222;16.342;2024-03-07T15:44:52;35.90;;;30.43;;
17169;SDS011;8700;48.222;16.342;2024-03-07T15:48:14;39.07;;;33.13;;
17169;SDS011;8700;48.222;16.342;2024-03-07T15:51:37;41.10;;;33.03;;
17169;SDS011;8700;48.222;16.342;2024-03-07T15:54:58;40.87;;;32.73;;
17169;SDS011;8700;48.222;16.342;2024-03-07T15:58:19;40.97;;;34.03;;
17169;SDS011;8700;48.222;16.342;2024-03-07T16:01:42;42.33;;;35.03;;
17169;SDS011;8700;48.222;16.342;2024-03-07T16:05:04;44.03;;;36.10;;
17169;SDS011;8700;48.222;16.342;2024-03-07T16:08:30;41.33;;;32.53;;
17169;SDS011;8700;48.222;16.342;2024-03-07T16:11:52;41.73;;;35.73;;
17169;SDS011;8700;48.222;16.342;2024-03-07T16:15:13;44.53;;;35.40;;
17169;SDS011;8700;48.222;16.342;2024-03-07T16:18:35;45.67;;;38.73;;
17169;SDS011;8700;48.222;16.342;2024-03-07T16:21:56;49.27;;;39.43;;
17169;SDS011;8700;48.222;16.342;2024-03-07T16:25:19;42.93;;;36.53;;
17169;SDS011;8700;48.222;16.342;2024-03-07T16:28:40;46.00;;;36.87;;
17169;SDS011;8700;48.222;16.342;2024-03-07T16:32:01;48.67;;;37.30;;
17169;SDS011;8700;48.222;16.342;2024-03-07T16:35:23;48.00;;;35.93;;
17169;SDS011;8700;48.222;16.342;2024-03-07T16:38:46;47.37;;;39.77;;
17169;SDS011;8700;48.222;16.342;2024-03-07T16:42:08;47.00;;;34.93;;
17169;SDS011;8700;48.222;16.342;2024-03-07T16:45:30;45.37;;;33.53;;
17169;SDS011;8700;48.222;16.342;2024-03-07T16:48:52;46.17;;;35.97;;
17169;SDS011;8700;48.222;16.342;2024-03-07T16:52:14;61.70;;;46.13;;
17169;SDS011;8700;48.222;16.342;2024-03-07T16:55:35;51.20;;;40.57;;
17169;SDS011;8700;48.222;16.342;2024-03-07T16:58:58;50.40;;;40.80;;
17169;SDS011;8700;48.222;16.342;2024-03-07T17:02:19;47.40;;;36.97;;
17169;SDS011;8700;48.222;16.342;2024-03-07T17:05:45;48.60;;;36.87;;
17169;SDS011;8700;48.222;16.342;2024-03-07T17:09:06;51.77;;;39.27;;
17169;SDS011;8700;48.222;16.342;2024-03-07T17:12:30;53.03;;;40.23;;
17169;SDS011;8700;48.222;16.342;2024-03-07T17:15:53;57.30;;;41.13;;
17169;SDS011;8700;48.222;16.342;2024-03-07T17:19:15;48.93;;;38.67;;
17169;SDS011;8700;48.222;16.342;2024-03-07T17:22:39;51.03;;;40.93;;
17169;SDS011;8700;48.222;16.342;2024-03-07T17:26:00;52.50;;;39.30;;
17169;SDS011;8700;48.222;16.342;2024-03-07T17:29:21;112.70;;;72.50;;
17169;SDS011;8700;48.222;16.342;2024-03-07T17:32:44;51.53;;;41.40;;
17169;SDS011;8700;48.222;16.342;2024-03-07T17:36:06;52.30;;;41.63;;
17169;SDS011;8700;48.222;16.342;2024-03-07T17:39:29;52.00;;;39.77;;
17169;SDS011;8700;48.222;16.342;2024-03-07T17:42:51;51.27;;;40.97;;
17169;SDS011;8700;48.222;16.342;2024-03-07T17:46:12;51.33;;;41.23;;
17169;SDS011;8700;48.222;16.342;2024-03-07T17:49:34;57.23;;;40.93;;
17169;SDS011;8700;48.222;16.342;2024-03-07T17:52:58;51.77;;;43.17;;
17169;SDS011;8700;48.222;16.342;2024-03-07T17:56:20;54.50;;;42.73;;
17169;SDS011;8700;48.222;16.342;2024-03-07T17:59:43;56.00;;;42.03;;
17169;SDS011;8700;48.222;16.342;2024-03-07T18:03:05;54.93;;;41.30;;
17169;SDS011;8700;48.222;16.342;2024-03-07T18:06:28;53.17;;;42.03;;
17169;SDS011;8700;48.222;16.342;2024-03-07T18:09:50;55.57;;;44.30;;
17169;SDS011;8700;48.222;16.342;2024-03-07T18:13:13;54.97;;;43.90;;
17169;SDS011;8700;48.222;16.342;2024-03-07T18:16:34;64.23;;;47.20;;
17169;SDS011;8700;48.222;16.342;2024-03-07T18:19:56;63.13;;;44.13;;
17169;SDS011;8700;48.222;16.342;2024-03-07T18:23:20;50.67;;;40.83;;
17169;SDS011;8700;48.222;16.342;2024-03-07T18:26:41;59.80;;;43.43;;
17169;SDS011;8700;48.222;16.342;2024-03-07T18:30:03;58.33;;;43.23;;
17169;SDS011;8700;48.222;16.342;2024-03-07T18:33:30;60.17;;;46.00;;
17169;SDS011;8700;48.222;16.342;2024-03-07T18:36:52;58.57;;;44.60;;
17169;SDS011;8700;48.222;16.342;2024-03-07T18:40:14;59.20;;;45.33;;
17169;SDS011;8700;48.222;16.342;2024-03-07T18:43:36;55.63;;;41.97;;
17169;SDS011;8700;48.222;16.342;2024-03-07T18:46:58;59.53;;;45.73;;
17169;SDS011;8700;48.222;16.342;2024-03-07T18:50:23;59.37;;;42.03;;
17169;SDS011;8700;48.222;16.342;2024-03-07T18:53:45;56.07;;;44.13;;
17169;SDS011;8700;48.222;16.342;2024-03-07T18:57:08;60.07;;;46.30;;
17169;SDS011;8700;48.222;16.342;2024-03-07T19:00:30;59.63;;;45.13;;
17169;SDS011;8700;48.222;16.342;2024-03-07T19:03:52;60.17;;;45.70;;
17169;SDS011;8700;48.222;16.342;2024-03-07T19:07:13;63.67;;;48.00;;
17169;SDS011;8700;48.222;16.342;2024-03-07T19:10:35;67.27;;;48.03;;
17169;SDS011;8700;48.222;16.342;2024-03-07T19:13:58;61.60;;;47.50;;
17169;SDS011;8700;48.222;16.342;2024-03-07T19:17:19;54.33;;;38.10;;
17169;SDS011;8700;48.222;16.342;2024-03-07T19:20:40;60.60;;;45.97;;
17169;SDS011;8700;48.222;16.342;2024-03-07T19:24:02;64.33;;;45.67;;
17169;SDS011;8700;48.222;16.342;2024-03-07T19:27:24;59.30;;;43.37;;
17169;SDS011;8700;48.222;16.342;2024-03-07T19:30:47;56.43;;;43.03;;
17169;SDS011;8700;48.222;16.342;2024-03-07T19:34:09;60.70;;;45.03;;
17169;SDS011;8700;48.222;16.342;2024-03-07T19:37:30;68.60;;;49.07;;
17169;SDS011;8700;48.222;16.342;2024-03-07T19:40:54;59.53;;;45.20;;
17169;SDS011;8700;48.222;16.342;2024-03-07T19:44:15;67.87;;;47.33;;
17169;SDS011;8700;48.222;16.342;2024-03-07T19:47:39;62.07;;;46.90;;
17169;SDS011;8700;48.222;16.342;2024-03-07T19:51:00;60.47;;;44.73;;
17169;SDS011;8700;48.222;16.342;2024-03-07T19:54:28;59.87;;;45.43;;
17169;SDS011;8700;48.222;16.342;2024-03-07T19:57:49;61.13;;;46.00;;